Kinrikimaru — JL6545 — position and weather

sailwx.info

Track history (hours):
 
Tides and Currents Weather Stations Pressure Air Temp Water Temp Dewpoint Dewpoint Depression Visibility Wind Speed Wind Dir Waves Ship Positions

Kinrikimaru

Last reported at 2016-Dec-10 06:19 UTC. Time now 2016-Dec-10 07:00 UTC.
Position N 34°42' E 135°15'.

Length 76 m; draft 4.5 m.

Type: Cargo ship. MMSI: 431500615.

Date/timePositionNaut miles runAvg speedWind from/ knotsBaromVisibWave heightAir tempDewpointWater temp
2016-Dec-10 06:19N 34°42' E 135°15'0 0.0
2016-Dec-10 05:31N 34°42' E 135°15'0 0.0
2016-Dec-10 04:31N 34°42' E 135°15'0 0.0
2016-Dec-10 03:31N 34°42' E 135°15'0 0.0
2016-Dec-10 02:31N 34°42' E 135°15'0 0.0
2016-Dec-10 01:31N 34°42' E 135°15'0 0.0
2016-Dec-10 00:31N 34°42' E 135°15'0 0.0
2016-Dec-09 23:31N 34°42' E 135°15'0 0.0
2016-Dec-09 22:31N 34°42' E 135°15'0 0.0
2016-Dec-09 21:19N 34°42' E 135°15'0 0.0
2016-Dec-09 20:31N 34°42' E 135°15'0 0.0
2016-Dec-09 19:31N 34°42' E 135°15'0 0.0
2016-Dec-09 18:31N 34°42' E 135°15'0 0.0
2016-Dec-09 17:31N 34°42' E 135°15'0 0.0
2016-Dec-09 16:31N 34°42' E 135°15'0 0.0
2016-Dec-09 15:31N 34°42' E 135°15'0 0.0
2016-Dec-09 14:19N 34°42' E 135°15'0 0.0
2016-Dec-09 13:31N 34°42' E 135°15'0 0.0
2016-Dec-09 12:31N 34°42' E 135°15'0 0.0
2016-Dec-09 11:31N 34°42' E 135°15'0 0.0
2016-Dec-09 10:31N 34°42' E 135°15'0 0.0
2016-Dec-09 09:31N 34°42' E 135°15'0 0.0
2016-Dec-09 08:31N 34°42' E 135°15'0 0.0
2016-Dec-09 07:31N 34°42' E 135°15'0 0.0
2016-Dec-09 06:25N 34°42' E 135°15'0 0.0
2016-Dec-09 05:31N 34°42' E 135°15'0 0.0
2016-Dec-09 04:31N 34°42' E 135°15'6 6.6
2016-Dec-09 03:33N 34°36' E 135°13'  
2016-Dec-04 06:09N 34°37' E 135°01'712.0
2016-Dec-04 05:33N 34°36' E 135°10'1212.5
2016-Dec-04 04:34N 34°36' E 135°25'1 0.5
2016-Dec-04 02:28N 34°35' E 135°26'0 0.0
2016-Dec-04 01:28N 34°35' E 135°26'0 0.0
2016-Dec-04 00:28N 34°35' E 135°26'0 0.0
2016-Dec-03 23:31N 34°35' E 135°26'0 0.2
2016-Dec-03 21:23N 34°35' E 135°25'0 0.0
2016-Dec-03 20:17N 34°35' E 135°25'0 0.0
2016-Dec-03 19:17N 34°35' E 135°25'0 0.0
2016-Dec-03 18:23N 34°35' E 135°25'0 0.0
2016-Dec-03 17:29N 34°35' E 135°25'0 0.0
2016-Dec-03 16:29N 34°35' E 135°25'0 0.0
2016-Dec-03 15:29N 34°35' E 135°25'0 0.0
2016-Dec-03 13:11N 34°35' E 135°25'0 0.0
2016-Dec-03 12:17N 34°35' E 135°25'0 0.0
2016-Dec-03 11:29N 34°35' E 135°25'0 0.0
2016-Dec-03 06:05N 34°35' E 135°25'0 0.0
2016-Dec-03 03:23N 34°35' E 135°25'4 5.3
2016-Dec-03 02:33N 34°36' E 135°20'1312.8
2016-Dec-03 01:33N 34°35' E 135°05'3 0.1
2016-Dec-01 08:26N 34°37' E 135°02'1010.9
2016-Dec-01 07:31N 34°36' E 135°13'1010.4
2016-Dec-01 06:33N 34°35' E 135°26'0 0.0
2016-Nov-30 23:30N 34°35' E 135°26'0 0.3
2016-Nov-30 22:05N 34°35' E 135°25'0 0.1
2016-Nov-30 21:23N 34°35' E 135°25'0 0.0
2016-Nov-30 20:29N 34°35' E 135°25'0 0.0
2016-Nov-30 19:29N 34°35' E 135°25'0 0.1
2016-Nov-30 18:29N 34°35' E 135°25'0 0.0
2016-Nov-30 17:29N 34°35' E 135°25'0 0.1
2016-Nov-30 16:23N 34°35' E 135°25'0 0.1
2016-Nov-30 15:17N 34°35' E 135°25'0 0.1
2016-Nov-30 14:29N 34°35' E 135°25'0 0.0
2016-Nov-30 13:29N 34°35' E 135°25'0 0.0
2016-Nov-30 12:29N 34°35' E 135°25'0 0.1
2016-Nov-30 11:29N 34°35' E 135°25'0 0.0
2016-Nov-30 10:11N 34°35' E 135°25'0 0.0
2016-Nov-30 09:17N 34°35' E 135°25'0 0.1
2016-Nov-30 08:17N 34°35' E 135°25'0 0.1
2016-Nov-30 07:17N 34°35' E 135°25'0 0.0
2016-Nov-30 06:29N 34°35' E 135°25'  
Track history (hours):
 
Tides and Currents Weather Stations Pressure Air Temp Water Temp Dewpoint Dewpoint Depression Visibility Wind Speed Wind Dir Waves Ship Positions

Kinrikimaru

Last reported at 2016-Dec-10 06:19 UTC. Time now 2016-Dec-10 07:00 UTC.
Position N 34°42' E 135°15'.

Length 76 m; draft 4.5 m.

Type: Cargo ship. MMSI: 431500615.

Date/timePositionNaut miles runAvg speedWind from/ knotsBaromVisibWave heightAir tempDewpointWater temp
2016-Dec-10 06:19N 34°42' E 135°15'0 0.0
2016-Dec-10 05:31N 34°42' E 135°15'0 0.0
2016-Dec-10 04:31N 34°42' E 135°15'0 0.0
2016-Dec-10 03:31N 34°42' E 135°15'0 0.0
2016-Dec-10 02:31N 34°42' E 135°15'0 0.0
2016-Dec-10 01:31N 34°42' E 135°15'0 0.0
2016-Dec-10 00:31N 34°42' E 135°15'0 0.0
2016-Dec-09 23:31N 34°42' E 135°15'0 0.0
2016-Dec-09 22:31N 34°42' E 135°15'0 0.0
2016-Dec-09 21:19N 34°42' E 135°15'0 0.0
2016-Dec-09 20:31N 34°42' E 135°15'0 0.0
2016-Dec-09 19:31N 34°42' E 135°15'0 0.0
2016-Dec-09 18:31N 34°42' E 135°15'0 0.0
2016-Dec-09 17:31N 34°42' E 135°15'0 0.0
2016-Dec-09 16:31N 34°42' E 135°15'0 0.0
2016-Dec-09 15:31N 34°42' E 135°15'0 0.0
2016-Dec-09 14:19N 34°42' E 135°15'0 0.0
2016-Dec-09 13:31N 34°42' E 135°15'0 0.0
2016-Dec-09 12:31N 34°42' E 135°15'0 0.0
2016-Dec-09 11:31N 34°42' E 135°15'0 0.0
2016-Dec-09 10:31N 34°42' E 135°15'0 0.0
2016-Dec-09 09:31N 34°42' E 135°15'0 0.0
2016-Dec-09 08:31N 34°42' E 135°15'0 0.0
2016-Dec-09 07:31N 34°42' E 135°15'0 0.0
2016-Dec-09 06:25N 34°42' E 135°15'0 0.0
2016-Dec-09 05:31N 34°42' E 135°15'0 0.0
2016-Dec-09 04:31N 34°42' E 135°15'6 6.6
2016-Dec-09 03:33N 34°36' E 135°13'  
2016-Dec-04 06:09N 34°37' E 135°01'712.0
2016-Dec-04 05:33N 34°36' E 135°10'1212.5
2016-Dec-04 04:34N 34°36' E 135°25'1 0.5
2016-Dec-04 02:28N 34°35' E 135°26'0 0.0
2016-Dec-04 01:28N 34°35' E 135°26'0 0.0
2016-Dec-04 00:28N 34°35' E 135°26'0 0.0
2016-Dec-03 23:31N 34°35' E 135°26'0 0.2
2016-Dec-03 21:23N 34°35' E 135°25'0 0.0
2016-Dec-03 20:17N 34°35' E 135°25'0 0.0
2016-Dec-03 19:17N 34°35' E 135°25'0 0.0
2016-Dec-03 18:23N 34°35' E 135°25'0 0.0
2016-Dec-03 17:29N 34°35' E 135°25'0 0.0
2016-Dec-03 16:29N 34°35' E 135°25'0 0.0
2016-Dec-03 15:29N 34°35' E 135°25'0 0.0
2016-Dec-03 13:11N 34°35' E 135°25'0 0.0
2016-Dec-03 12:17N 34°35' E 135°25'0 0.0
2016-Dec-03 11:29N 34°35' E 135°25'0 0.0
2016-Dec-03 06:05N 34°35' E 135°25'0 0.0
2016-Dec-03 03:23N 34°35' E 135°25'4 5.3
2016-Dec-03 02:33N 34°36' E 135°20'1312.8
2016-Dec-03 01:33N 34°35' E 135°05'3 0.1
2016-Dec-01 08:26N 34°37' E 135°02'1010.9
2016-Dec-01 07:31N 34°36' E 135°13'1010.4
2016-Dec-01 06:33N 34°35' E 135°26'0 0.0
2016-Nov-30 23:30N 34°35' E 135°26'0 0.3
2016-Nov-30 22:05N 34°35' E 135°25'0 0.1
2016-Nov-30 21:23N 34°35' E 135°25'0 0.0
2016-Nov-30 20:29N 34°35' E 135°25'0 0.0
2016-Nov-30 19:29N 34°35' E 135°25'0 0.1
2016-Nov-30 18:29N 34°35' E 135°25'0 0.0
2016-Nov-30 17:29N 34°35' E 135°25'0 0.1
2016-Nov-30 16:23N 34°35' E 135°25'0 0.1
2016-Nov-30 15:17N 34°35' E 135°25'0 0.1
2016-Nov-30 14:29N 34°35' E 135°25'0 0.0
2016-Nov-30 13:29N 34°35' E 135°25'0 0.0
2016-Nov-30 12:29N 34°35' E 135°25'0 0.1
2016-Nov-30 11:29N 34°35' E 135°25'0 0.0
2016-Nov-30 10:11N 34°35' E 135°25'0 0.0
2016-Nov-30 09:17N 34°35' E 135°25'0 0.1
2016-Nov-30 08:17N 34°35' E 135°25'0 0.1
2016-Nov-30 07:17N 34°35' E 135°25'0 0.0
2016-Nov-30 06:29N 34°35' E 135°25'  

Dump ship's entire track history